Time;durP1;ratioP1;P1;durP2;ratioP2;P2;SDS_P1;SDS_P2;PMS_P1;PMS_P2;Temp;Humidity;BMP_temperature;BMP_pressure;BME280_temperature;BME280_humidity;BME280_pressure;Samples;Min_cycle;Max_cycle;Signal;HPM_P1;HPM_P2
2022/01/06 00:01:16;;;;;;;5.45;2.30;;;;;;;3.29;86.49;100274.06;5037277;28;20025;-70
2022/01/06 00:03:42;;;;;;;5.45;2.25;;;;;;;3.27;86.12;100278.78;5039965;28;20116;-68
2022/01/06 00:06:09;;;;;;;8.27;2.28;;;;;;;3.34;86.09;100276.09;5031393;28;20033;-67
2022/01/06 00:08:37;;;;;;;7.13;2.50;;;;;;;3.19;84.79;100289.59;5035191;28;20104;-66
2022/01/06 00:11:05;;;;;;;13.68;2.75;;;;;;;3.26;84.82;100300.97;5032860;28;20052;-66
2022/01/06 00:24:10;;;;;;;3.97;1.90;;;;;;;3.05;83.44;100317.13;5034252;28;20395;-67
2022/01/06 00:26:36;;;;;;;10.20;2.17;;;;;;;3.04;82.89;100320.81;5031366;28;20135;-67
2022/01/06 00:29:01;;;;;;;6.50;2.05;;;;;;;3.08;83.09;100306.16;5034477;28;20503;-66
2022/01/06 00:31:27;;;;;;;5.72;1.83;;;;;;;3.04;82.19;100315.50;5033251;28;20111;-67
2022/01/06 00:33:52;;;;;;;9.07;1.70;;;;;;;3.02;82.19;100317.56;5047731;28;20048;-67
2022/01/06 00:36:18;;;;;;;4.97;1.77;;;;;;;3.09;82.32;100328.13;5038769;28;20025;-66
2022/01/06 00:38:43;;;;;;;5.53;1.73;;;;;;;3.06;81.75;100332.03;5030018;28;20102;-66
2022/01/06 00:41:09;;;;;;;4.40;1.70;;;;;;;2.94;81.30;100333.69;5035381;28;20119;-66
2022/01/06 00:43:34;;;;;;;3.28;1.50;;;;;;;2.97;81.26;100342.00;5034955;28;20032;-67
2022/01/06 00:46:00;;;;;;;3.72;1.50;;;;;;;2.95;80.84;100345.88;5035888;28;20037;-66
2022/01/06 00:48:25;;;;;;;3.40;1.20;;;;;;;2.88;80.30;100343.28;5034996;28;20039;-67
2022/01/06 00:50:51;;;;;;;7.25;1.35;;;;;;;2.80;79.47;100350.59;5033302;28;20033;-66
2022/01/06 00:53:16;;;;;;;7.55;2.00;;;;;;;2.64;77.57;100360.59;5034249;28;20033;-66
2022/01/06 00:55:42;;;;;;;3.63;1.40;;;;;;;2.75;78.32;100355.72;5029739;28;20079;-66
2022/01/06 00:58:08;;;;;;;5.18;1.30;;;;;;;2.75;78.20;100363.63;5033424;28;20033;-66
2022/01/06 01:00:39;;;;;;;4.00;1.25;;;;;;;2.75;78.27;100369.75;5033627;28;20030;-66
2022/01/06 01:03:08;;;;;;;4.55;1.20;;;;;;;2.71;77.38;100371.19;5034841;28;20620;-66
2022/01/06 01:05:34;;;;;;;2.47;1.00;;;;;;;2.78;78.07;100376.44;5033730;28;20033;-66
2022/01/06 01:07:59;;;;;;;3.15;1.00;;;;;;;2.73;78.07;100367.31;5035024;28;20445;-66
2022/01/06 01:10:25;;;;;;;4.25;0.80;;;;;;;2.69;78.17;100378.47;5047538;28;20036;-66
2022/01/06 01:12:50;;;;;;;3.42;0.93;;;;;;;2.61;77.77;100384.81;5032690;28;20214;-66
2022/01/06 01:15:20;;;;;;;3.90;0.82;;;;;;;2.64;78.11;100386.22;5048496;28;20056;-67
2022/01/06 01:17:51;;;;;;;6.50;1.10;;;;;;;2.68;78.33;100384.78;5035729;28;20032;-67
2022/01/06 01:20:19;;;;;;;1.33;1.10;;;;;;;2.67;78.18;100402.50;5032252;28;20509;-66
2022/01/06 01:22:45;;;;;;;3.92;1.25;;;;;;;2.65;77.88;100401.88;5031756;28;20028;-66
2022/01/06 01:25:12;;;;;;;2.33;1.00;;;;;;;2.45;77.59;100398.44;5034600;28;20096;-67
2022/01/06 01:27:39;;;;;;;4.82;1.17;;;;;;;2.55;77.81;100406.78;5027867;28;20441;-66
2022/01/06 01:30:12;;;;;;;2.35;1.20;;;;;;;2.58;78.02;100418.78;5034546;28;20060;-67
2022/01/06 01:32:39;;;;;;;6.13;0.95;;;;;;;2.56;77.71;100419.00;5034358;28;20025;-67
2022/01/06 01:35:09;;;;;;;3.80;1.15;;;;;;;2.60;77.58;100414.91;5033379;28;20053;-66
2022/01/06 01:37:36;;;;;;;5.75;1.08;;;;;;;2.61;77.40;100416.56;5032429;28;20103;-66
2022/01/06 01:40:07;;;;;;;4.13;0.98;;;;;;;2.57;76.88;100420.63;5035321;28;20241;-66
2022/01/06 01:42:33;;;;;;;4.90;1.27;;;;;;;2.55;76.74;100412.09;5032094;28;20641;-66
2022/01/06 01:45:01;;;;;;;5.20;1.38;;;;;;;2.55;76.42;100429.78;5033279;28;20029;-66
2022/01/06 01:47:32;;;;;;;6.18;1.00;;;;;;;2.56;76.85;100442.81;5031600;28;20037;-67
2022/01/06 01:50:16;;;;;;;5.35;1.38;;;;;;;2.57;76.90;100436.50;5034804;28;20037;-66
2022/01/06 01:52:56;;;;;;;4.88;1.02;;;;;;;2.61;76.97;100439.53;5040523;28;20045;-66
2022/01/06 01:55:32;;;;;;;4.63;1.05;;;;;;;2.63;76.95;100443.59;5037930;28;20040;-66
2022/01/06 01:57:58;;;;;;;3.67;1.20;;;;;;;2.51;76.51;100439.94;5036604;28;20104;-67
2022/01/06 02:00:26;;;;;;;2.08;0.90;;;;;;;2.47;76.02;100454.59;5034868;28;20641;-67
2022/01/06 02:02:52;;;;;;;3.50;1.00;;;;;;;2.50;76.06;100459.47;5038507;28;20095;-67
2022/01/06 02:05:28;;;;;;;1.90;0.90;;;;;;;2.51;75.69;100460.28;5036376;28;20441;-66
2022/01/06 02:07:58;;;;;;;7.93;1.05;;;;;;;2.51;75.69;100469.03;5041720;28;20025;-66
2022/01/06 02:10:24;;;;;;;3.28;1.25;;;;;;;2.52;76.04;100477.78;5036889;28;20028;-66
2022/01/06 02:12:51;;;;;;;5.85;1.38;;;;;;;2.46;75.45;100484.69;5035126;28;21530;-66
2022/01/06 02:15:17;;;;;;;7.43;1.33;;;;;;;2.45;75.39;100483.06;5033520;28;20056;-66
2022/01/06 02:17:44;;;;;;;3.88;1.70;;;;;;;2.45;75.64;100485.69;5036863;28;20025;-66
2022/01/06 02:20:12;;;;;;;8.93;1.63;;;;;;;2.37;75.04;100496.47;5035978;28;20022;-66
2022/01/06 02:22:38;;;;;;;6.85;1.10;;;;;;;2.36;75.34;100513.38;5038413;28;20037;-66
2022/01/06 02:25:21;;;;;;;2.17;1.13;;;;;;;2.31;75.17;100513.13;5033806;28;20061;-66
2022/01/06 02:27:50;;;;;;;1.58;1.20;;;;;;;2.29;75.77;100501.94;5035205;28;20033;-66
2022/01/06 02:30:17;;;;;;;3.97;1.00;;;;;;;2.26;75.53;100507.63;5039573;28;20021;-66
2022/01/06 02:32:43;;;;;;;2.05;0.90;;;;;;;2.35;76.14;100517.03;5035398;28;20021;-66
2022/01/06 02:35:10;;;;;;;4.72;1.15;;;;;;;2.22;75.24;100522.25;5038167;28;20032;-66
2022/01/06 02:37:36;;;;;;;1.73;0.90;;;;;;;2.19;75.65;100527.94;5038208;28;20079;-67
2022/01/06 02:40:07;;;;;;;5.47;0.98;;;;;;;2.17;75.16;100536.09;5038123;28;20029;-66
2022/01/06 02:42:33;;;;;;;1.27;0.80;;;;;;;2.24;75.76;100544.03;5036662;28;20512;-66
2022/01/06 02:44:59;;;;;;;10.40;2.90;;;;;;;2.20;74.83;100548.91;5036125;28;20030;-66
2022/01/06 02:47:24;;;;;;;1.52;0.75;;;;;;;2.19;75.25;100551.75;5036182;28;20398;-67
2022/01/06 02:49:50;;;;;;;2.67;0.90;;;;;;;2.29;75.44;100557.44;5035565;28;20033;-67
2022/01/06 02:52:15;;;;;;;5.07;1.00;;;;;;;2.17;75.32;100551.13;5053653;28;20025;-66
2022/01/06 02:54:41;;;;;;;2.63;0.85;;;;;;;2.15;75.18;100567.16;5032692;28;20283;-67
2022/01/06 02:57:06;;;;;;;4.97;0.90;;;;;;;2.15;74.85;100574.28;5052363;28;20257;-66
2022/01/06 02:59:31;;;;;;;13.07;2.22;;;;;;;2.18;74.91;100580.00;5033665;28;20025;-66
2022/01/06 03:01:57;;;;;;;3.55;1.10;;;;;;;2.13;74.29;100588.50;5035491;28;20035;-66
2022/01/06 03:04:23;;;;;;;2.03;1.70;;;;;;;2.12;74.75;100586.88;5037678;28;20542;-66
2022/01/06 03:06:49;;;;;;;1.48;0.98;;;;;;;2.05;74.15;100585.22;5034421;28;21329;-67
2022/01/06 03:09:24;;;;;;;3.38;1.00;;;;;;;2.03;73.86;100587.25;5032960;28;20509;-66
2022/01/06 03:11:51;;;;;;;;;;;;;;;1.94;73.78;100598.97;5049460;28;20031;-67
2022/01/06 03:14:17;;;;;;;1.55;0.70;;;;;;;1.91;73.29;100610.75;5033658;28;19948;-66
2022/01/06 03:16:42;;;;;;;3.40;0.80;;;;;;;1.91;73.62;100620.50;5034422;28;20148;-66
2022/01/06 03:19:08;;;;;;;0.65;0.63;;;;;;;1.79;73.43;100612.28;5039572;28;20199;-66
2022/01/06 03:21:33;;;;;;;3.65;0.80;;;;;;;1.77;73.60;100624.88;5034725;28;20387;-66
2022/01/06 03:23:59;;;;;;;2.13;1.13;;;;;;;1.67;73.08;100627.06;5036595;28;20068;-66
2022/01/06 03:26:24;;;;;;;1.23;0.80;;;;;;;1.64;74.18;100638.03;5032663;28;20028;-66
2022/01/06 03:28:50;;;;;;;1.80;0.82;;;;;;;1.74;74.18;100646.41;5032683;28;20039;-67
2022/01/06 03:31:15;;;;;;;2.95;1.33;;;;;;;1.71;73.43;100652.09;5033488;28;20462;-67
2022/01/06 03:33:41;;;;;;;2.97;1.00;;;;;;;1.50;73.24;100651.13;5032047;28;20025;-66
2022/01/06 03:36:06;;;;;;;3.58;0.80;;;;;;;1.47;73.70;100651.50;5030780;28;20499;-66
2022/01/06 03:38:31;;;;;;;1.25;0.70;;;;;;;1.46;73.80;100659.63;5032748;28;20379;-66
2022/01/06 03:40:57;;;;;;;2.15;0.88;;;;;;;1.45;74.01;100671.19;5034519;28;20021;-66
2022/01/06 03:43:23;;;;;;;5.00;1.02;;;;;;;1.57;74.14;100682.03;5033815;28;20037;-66
2022/01/06 03:45:48;;;;;;;3.10;0.88;;;;;;;1.56;73.99;100693.59;5037072;28;20045;-66
2022/01/06 03:48:14;;;;;;;3.95;0.80;;;;;;;1.43;73.53;100699.56;5034915;28;20074;-66
2022/01/06 03:50:39;;;;;;;4.05;0.95;;;;;;;1.49;73.80;100702.28;5033610;28;20289;-66
2022/01/06 03:53:05;;;;;;;2.92;1.15;;;;;;;1.40;73.43;100721.91;5031726;28;20046;-66
2022/01/06 03:55:30;;;;;;;3.38;0.95;;;;;;;1.45;73.82;100722.16;5033296;28;20071;-66
2022/01/06 03:57:55;;;;;;;1.20;0.82;;;;;;;1.35;73.55;100742.78;5034721;28;20082;-66
2022/01/06 04:00:22;;;;;;;2.38;1.25;;;;;;;1.25;73.79;100744.88;5032688;28;20663;-66
2022/01/06 04:02:48;;;;;;;2.22;0.65;;;;;;;1.28;73.96;100749.00;5037505;28;20035;-66
2022/01/06 04:05:14;;;;;;;1.02;0.70;;;;;;;1.16;73.52;100753.94;5035713;28;20037;-66
2022/01/06 04:07:41;;;;;;;3.42;0.80;;;;;;;1.12;73.79;100758.78;5034740;28;20088;-66
2022/01/06 04:10:08;;;;;;;3.60;0.93;;;;;;;1.19;73.71;100764.13;5035228;28;20123;-66
2022/01/06 04:12:35;;;;;;;2.55;0.57;;;;;;;1.10;72.16;100770.53;5032755;28;20037;-66
2022/01/06 04:15:01;;;;;;;1.33;0.43;;;;;;;1.06;71.22;100779.78;5035143;28;20024;-66
2022/01/06 04:17:27;;;;;;;3.95;0.50;;;;;;;1.05;71.38;100772.88;5033978;28;20124;-66
2022/01/06 04:19:53;;;;;;;2.90;0.80;;;;;;;1.00;70.99;100791.09;5036901;28;20684;-67
2022/01/06 04:22:18;;;;;;;0.40;0.40;;;;;;;0.96;71.52;100809.13;5034294;28;20025;-66
2022/01/06 04:24:45;;;;;;;1.40;0.40;;;;;;;0.87;70.93;100808.38;5034016;28;20044;-66
2022/01/06 04:27:11;;;;;;;2.83;0.80;;;;;;;0.93;71.79;100812.13;5035949;28;20032;-67
2022/01/06 04:29:36;;;;;;;1.63;0.70;;;;;;;0.94;72.06;100824.31;5034527;28;20417;-66
2022/01/06 04:32:03;;;;;;;3.75;0.60;;;;;;;0.90;72.32;100828.31;5038687;28;20075;-66
2022/01/06 04:34:29;;;;;;;2.65;0.50;;;;;;;0.93;72.61;100829.78;5034548;28;20017;-66
2022/01/06 04:36:57;;;;;;;4.88;0.82;;;;;;;0.91;72.99;100840.50;5035359;28;20060;-66
2022/01/06 04:39:22;;;;;;;1.88;0.80;;;;;;;0.87;73.13;100839.22;5031550;28;20038;-67
2022/01/06 04:41:48;;;;;;;1.02;0.70;;;;;;;0.93;73.13;100837.69;5037641;28;20037;-66
2022/01/06 04:44:13;;;;;;;2.15;0.60;;;;;;;0.89;73.28;100850.41;5034011;28;20044;-66
2022/01/06 04:46:39;;;;;;;4.35;0.70;;;;;;;0.94;73.52;100852.50;5041767;28;20147;-66
2022/01/06 04:49:04;;;;;;;1.95;0.70;;;;;;;0.78;73.10;100856.97;5033855;28;20276;-67
2022/01/06 04:51:31;;;;;;;0.68;0.52;;;;;;;0.74;73.50;100865.44;5037236;28;20418;-66
2022/01/06 04:53:57;;;;;;;0.50;0.47;;;;;;;0.70;73.76;100874.69;5035020;28;20709;-66
2022/01/06 04:56:22;;;;;;;2.85;0.65;;;;;;;0.70;74.06;100872.84;5036213;28;20252;-67
2022/01/06 04:58:48;;;;;;;0.50;0.50;;;;;;;0.65;73.82;100874.41;5037370;28;20032;-66
2022/01/06 05:01:15;;;;;;;0.88;0.80;;;;;;;0.76;74.06;100876.59;5037973;28;20044;-66
2022/01/06 05:03:40;;;;;;;3.97;0.75;;;;;;;0.66;73.43;100884.78;5038177;28;20135;-66
2022/01/06 05:06:05;;;;;;;2.90;0.73;;;;;;;0.39;73.08;100880.09;5029590;28;20120;-67
2022/01/06 05:08:31;;;;;;;1.30;0.40;;;;;;;0.36;73.66;100880.44;5037490;28;20450;-66
2022/01/06 05:10:56;;;;;;;1.67;0.60;;;;;;;0.37;73.38;100882.09;5034949;28;20120;-66
2022/01/06 05:13:22;;;;;;;2.17;0.60;;;;;;;0.29;72.98;100885.59;5052008;28;20061;-66
2022/01/06 05:15:47;;;;;;;1.10;0.40;;;;;;;0.43;74.24;100890.09;5033550;28;20028;-65
2022/01/06 05:18:13;;;;;;;3.92;0.60;;;;;;;0.40;73.91;100887.00;5050220;28;20153;-66
2022/01/06 05:20:42;;;;;;;3.22;0.50;;;;;;;0.39;74.08;100893.28;5037764;28;20474;-66
2022/01/06 05:23:08;;;;;;;2.47;1.23;;;;;;;0.32;73.71;100889.69;5034921;28;20396;-66
2022/01/06 05:25:34;;;;;;;9.95;1.35;;;;;;;0.34;74.24;100890.34;5042755;28;20494;-66
2022/01/06 05:28:00;;;;;;;3.05;0.50;;;;;;;0.38;74.13;100897.72;5055112;28;20031;-66
2022/01/06 05:30:25;;;;;;;0.85;0.50;;;;;;;0.43;74.08;100903.28;5037573;28;20510;-66
2022/01/06 05:32:51;;;;;;;2.20;0.88;;;;;;;0.44;74.11;100897.00;5041495;28;20048;-66
2022/01/06 05:35:17;;;;;;;2.00;0.50;;;;;;;0.42;73.75;100896.38;5036155;28;20096;-66
2022/01/06 05:37:42;;;;;;;1.83;0.50;;;;;;;0.20;73.37;100905.94;5037880;28;20033;-66
2022/01/06 05:40:08;;;;;;;4.47;1.02;;;;;;;0.14;73.90;100906.63;5039836;28;20021;-66
2022/01/06 05:42:34;;;;;;;1.02;0.50;;;;;;;0.21;74.01;100904.94;5039988;28;20083;-65
2022/01/06 05:45:00;;;;;;;2.00;0.40;;;;;;;0.21;73.77;100912.03;5034784;28;20032;-66
2022/01/06 05:47:25;;;;;;;3.72;0.65;;;;;;;0.08;73.73;100906.53;5041746;28;20116;-66
2022/01/06 05:49:50;;;;;;;0.63;0.43;;;;;;;0.16;74.38;100920.44;5042572;28;20032;-66
2022/01/06 05:52:17;;;;;;;2.53;0.68;;;;;;;0.02;74.05;100921.22;5042912;28;20100;-66
2022/01/06 05:54:43;;;;;;;2.30;0.50;;;;;;;-0.09;73.64;100924.25;5038672;28;20031;-66
2022/01/06 05:57:09;;;;;;;3.03;1.13;;;;;;;-0.09;74.44;100919.78;5044751;28;20033;-66
2022/01/06 05:59:35;;;;;;;2.63;0.70;;;;;;;-0.07;74.34;100927.53;5041564;28;20029;-66
2022/01/06 06:02:01;;;;;;;1.85;0.80;;;;;;;-0.11;73.96;100934.13;5037899;28;21316;-66
2022/01/06 06:04:26;;;;;;;2.30;0.80;;;;;;;-0.21;74.02;100936.16;5039434;28;20060;-66
2022/01/06 06:06:52;;;;;;;2.53;0.95;;;;;;;-0.20;74.46;100935.97;5039545;28;20167;-66
2022/01/06 06:09:17;;;;;;;1.73;0.60;;;;;;;-0.30;74.25;100943.28;5033354;28;20486;-66
2022/01/06 06:11:43;;;;;;;1.73;0.75;;;;;;;-0.14;74.75;100939.75;5039818;28;20640;-66
2022/01/06 06:14:09;;;;;;;0.75;0.45;;;;;;;-0.16;74.37;100952.28;5040607;28;20017;-66
2022/01/06 06:16:34;;;;;;;4.25;1.08;;;;;;;-0.29;74.37;100962.53;5031847;28;20083;-66
2022/01/06 06:19:00;;;;;;;3.03;0.70;;;;;;;-0.24;74.97;100971.56;5035106;28;20052;-66
2022/01/06 06:21:26;;;;;;;2.55;0.73;;;;;;;-0.27;74.29;100971.09;5039887;28;20048;-66
2022/01/06 06:23:51;;;;;;;1.13;0.75;;;;;;;-0.16;74.78;100968.09;5043414;28;20052;-66
2022/01/06 06:26:17;;;;;;;1.92;0.63;;;;;;;-0.15;74.21;100973.19;5033905;28;20129;-66
2022/01/06 06:28:42;;;;;;;0.93;0.63;;;;;;;-0.15;74.54;100980.25;5034161;28;20032;-66
2022/01/06 06:31:08;;;;;;;3.33;0.80;;;;;;;-0.11;74.15;100981.53;5039564;28;20257;-66
2022/01/06 06:33:34;;;;;;;2.50;0.80;;;;;;;-0.14;74.18;100987.97;5038079;28;20064;-66
2022/01/06 06:35:59;;;;;;;1.08;0.65;;;;;;;-0.15;74.61;100990.78;5050598;28;20071;-66
2022/01/06 06:38:25;;;;;;;1.73;1.15;;;;;;;-0.19;74.10;100989.47;5039350;28;20035;-66
2022/01/06 06:40:51;;;;;;;1.70;0.60;;;;;;;-0.19;74.27;101003.44;5037098;28;20036;-66
2022/01/06 06:43:16;;;;;;;5.22;0.90;;;;;;;-0.12;74.60;101007.06;5037717;28;20087;-66
2022/01/06 06:45:42;;;;;;;2.67;0.73;;;;;;;-0.10;74.05;101006.88;5034922;28;20021;-66
2022/01/06 06:48:08;;;;;;;1.38;0.50;;;;;;;-0.21;73.95;101010.72;5039982;28;20028;-67
2022/01/06 06:50:34;;;;;;;1.63;0.60;;;;;;;-0.23;74.35;101023.22;5051904;28;20025;-66
2022/01/06 06:53:00;;;;;;;2.45;1.02;;;;;;;-0.17;74.03;101032.28;5035209;28;20024;-66
2022/01/06 06:55:25;;;;;;;2.28;0.70;;;;;;;-0.11;74.63;101031.59;5037162;22;20042;-68
2022/01/06 06:57:50;;;;;;;1.33;0.80;;;;;;;-0.21;73.99;101047.56;5018867;28;20025;-68
2022/01/06 07:00:17;;;;;;;4.05;0.88;;;;;;;-0.07;74.67;101049.50;5019739;28;20033;-67
2022/01/06 07:02:42;;;;;;;1.35;0.68;;;;;;;-0.13;74.10;101057.28;5022166;28;20029;-67
2022/01/06 07:05:08;;;;;;;1.25;0.80;;;;;;;-0.08;74.33;101071.56;5018873;28;20390;-68
2022/01/06 07:07:34;;;;;;;3.75;1.42;;;;;;;-0.06;74.31;101072.22;5025094;28;20086;-68
2022/01/06 07:09:59;;;;;;;4.78;1.00;;;;;;;-0.01;74.55;101082.22;5023138;28;20498;-67
2022/01/06 07:12:25;;;;;;;7.90;1.02;;;;;;;-0.03;74.68;101089.47;5026325;28;20474;-68
2022/01/06 07:14:51;;;;;;;4.43;1.02;;;;;;;-0.03;74.44;101081.59;5025328;28;20033;-68
2022/01/06 07:17:17;;;;;;;1.95;0.70;;;;;;;-0.08;74.83;101092.63;5023360;28;20045;-68
2022/01/06 07:19:42;;;;;;;3.03;1.05;;;;;;;-0.08;75.13;101087.38;5023673;28;20025;-68
2022/01/06 07:22:07;;;;;;;5.88;1.08;;;;;;;-0.10;74.94;101104.34;5023100;28;20521;-67
2022/01/06 07:24:34;;;;;;;2.25;1.23;;;;;;;-0.15;75.46;101104.84;5023910;28;20083;-68
2022/01/06 07:27:00;;;;;;;3.40;0.80;;;;;;;-0.06;75.35;101105.63;5018123;28;20021;-68
2022/01/06 07:29:27;;;;;;;5.13;0.82;;;;;;;-0.10;75.74;101109.59;5021129;28;20057;-68
2022/01/06 07:31:53;;;;;;;2.20;1.10;;;;;;;-0.06;75.48;101105.63;5023385;28;20035;-68
2022/01/06 07:34:19;;;;;;;3.05;0.70;;;;;;;-0.05;75.93;101108.09;5022807;28;20037;-68
2022/01/06 07:36:45;;;;;;;2.67;0.80;;;;;;;0.01;75.66;101116.34;5022274;28;20048;-67
2022/01/06 07:39:10;;;;;;;3.15;0.90;;;;;;;-0.03;75.47;101123.72;5021369;28;20130;-68
2022/01/06 07:41:36;;;;;;;2.33;0.80;;;;;;;0.07;75.74;101127.00;5021972;28;20045;-67
2022/01/06 07:44:06;;;;;;;2.20;0.90;;;;;;;-0.02;75.67;101131.47;5021418;28;20072;-68
2022/01/06 07:46:31;;;;;;;3.72;1.13;;;;;;;-0.09;75.85;101140.22;5022387;28;20028;-68
2022/01/06 07:48:57;;;;;;;0.95;0.50;;;;;;;-0.16;75.83;101139.25;5021577;28;20140;-68
2022/01/06 07:51:28;;;;;;;3.45;0.80;;;;;;;-0.21;76.21;101142.38;5023168;28;20108;-68
2022/01/06 07:53:55;;;;;;;4.00;0.95;;;;;;;-0.16;76.24;101150.63;5021875;28;20025;-67
2022/01/06 07:56:21;;;;;;;5.95;1.50;;;;;;;-0.09;76.51;101153.41;5019010;28;20595;-68
2022/01/06 07:58:47;;;;;;;8.10;0.82;;;;;;;-0.17;76.19;101161.31;5022840;28;20066;-68
2022/01/06 08:01:14;;;;;;;1.77;0.70;;;;;;;-0.08;76.46;101163.75;5021171;28;20049;-67
2022/01/06 08:03:40;;;;;;;4.05;1.08;;;;;;;-0.05;76.13;101170.50;5022505;28;20025;-68
2022/01/06 08:06:05;;;;;;;3.40;0.73;;;;;;;-0.02;76.70;101180.69;5021703;28;20112;-67
2022/01/06 08:08:31;;;;;;;2.58;0.75;;;;;;;-0.07;76.64;101188.28;5022472;28;20460;-68
2022/01/06 08:10:56;;;;;;;5.07;0.93;;;;;;;-0.06;77.17;101182.03;5019497;28;20582;-67
2022/01/06 08:13:22;;;;;;;10.15;1.65;;;;;;;-0.09;77.46;101195.53;5021698;28;20028;-68
2022/01/06 08:15:47;;;;;;;4.93;1.35;;;;;;;-0.08;77.40;101199.81;5022075;28;20124;-67
2022/01/06 08:18:13;;;;;;;3.95;0.82;;;;;;;-0.06;77.20;101196.03;5021111;28;20032;-68
2022/01/06 08:20:39;;;;;;;2.90;1.02;;;;;;;-0.01;77.33;101200.78;5021749;28;20060;-68
2022/01/06 08:23:08;;;;;;;6.20;1.52;;;;;;;-0.03;77.25;101210.66;5022014;28;20025;-67
2022/01/06 08:25:34;;;;;;;3.67;0.90;;;;;;;-0.04;77.05;101209.84;5019234;28;20044;-68
2022/01/06 08:28:00;;;;;;;2.65;0.85;;;;;;;-0.04;77.26;101211.66;5020473;28;20029;-68
2022/01/06 08:30:26;;;;;;;6.53;1.02;;;;;;;-0.03;77.11;101210.66;5021073;28;20076;-68
2022/01/06 08:32:52;;;;;;;19.98;7.38;;;;;;;0.03;77.09;101220.56;5022441;28;20028;-67
2022/01/06 08:35:18;;;;;;;9.65;3.40;;;;;;;-0.01;76.99;101224.47;5020426;28;20506;-67
2022/01/06 08:37:44;;;;;;;13.10;3.67;;;;;;;-0.03;77.00;101226.47;5022350;28;20029;-68
2022/01/06 08:40:10;;;;;;;9.18;2.80;;;;;;;-0.03;77.26;101232.56;5021048;28;20486;-67
2022/01/06 08:42:35;;;;;;;4.38;1.33;;;;;;;-0.03;77.68;101243.09;5020625;28;20020;-67
2022/01/06 08:45:02;;;;;;;4.88;1.30;;;;;;;0.02;77.20;101244.44;5020235;28;20038;-68
2022/01/06 08:47:29;;;;;;;4.70;1.30;;;;;;;0.06;77.28;101235.19;5022179;28;20394;-68
2022/01/06 08:49:55;;;;;;;3.83;1.17;;;;;;;0.04;76.85;101239.81;5021660;28;20083;-67
2022/01/06 08:52:20;;;;;;;4.80;1.60;;;;;;;0.19;77.03;101244.22;5022182;28;20458;-68
2022/01/06 08:54:46;;;;;;;2.70;1.02;;;;;;;0.34;76.13;101249.59;5020934;28;20389;-67
2022/01/06 08:57:11;;;;;;;4.85;1.40;;;;;;;0.28;74.72;101260.84;5018075;28;20809;-68
2022/01/06 08:59:37;;;;;;;5.22;1.23;;;;;;;0.39;74.95;101257.03;5021901;28;20029;-68
2022/01/06 09:02:02;;;;;;;7.05;1.30;;;;;;;0.48;74.67;101258.63;5025205;28;20022;-68
2022/01/06 09:04:28;;;;;;;1.80;1.20;;;;;;;0.61;74.18;101272.13;5025300;28;20038;-67
2022/01/06 09:06:54;;;;;;;6.57;1.20;;;;;;;0.81;74.09;101267.25;5025553;28;20064;-67
2022/01/06 09:09:20;;;;;;;1.35;0.70;;;;;;;0.90;73.07;101274.97;5025286;28;20048;-68
2022/01/06 09:11:46;;;;;;;3.03;0.77;;;;;;;1.02;72.64;101277.22;5023729;28;20486;-68
2022/01/06 09:14:11;;;;;;;5.88;1.38;;;;;;;1.10;71.94;101282.47;5024328;28;20126;-68
2022/01/06 09:16:39;;;;;;;4.38;0.90;;;;;;;1.16;71.62;101292.31;5023800;28;20119;-67
2022/01/06 09:19:05;;;;;;;3.95;1.00;;;;;;;1.21;71.39;101284.69;5024986;28;20037;-67
2022/01/06 09:21:30;;;;;;;9.90;1.00;;;;;;;1.27;71.35;101301.69;5026864;28;20029;-68
2022/01/06 09:23:59;;;;;;;4.38;1.27;;;;;;;1.22;69.85;101312.75;5023507;28;20410;-67
2022/01/06 09:26:25;;;;;;;2.75;1.13;;;;;;;1.33;71.00;101312.38;5021781;28;20040;-68
2022/01/06 09:28:51;;;;;;;3.53;1.92;;;;;;;1.34;70.01;101315.81;5024827;28;20513;-68
2022/01/06 09:31:17;;;;;;;6.20;1.27;;;;;;;1.43;70.44;101317.41;5024702;28;20077;-68
2022/01/06 09:33:43;;;;;;;7.90;1.20;;;;;;;1.51;69.81;101323.47;5025011;28;20033;-68
2022/01/06 09:36:09;;;;;;;5.53;0.98;;;;;;;1.46;69.23;101325.81;5039691;28;20071;-67
2022/01/06 09:38:35;;;;;;;4.07;1.02;;;;;;;1.55;69.49;101334.50;5025520;28;20029;-67
2022/01/06 09:41:05;;;;;;;6.57;1.30;;;;;;;1.46;68.29;101328.47;5022586;28;20025;-68
2022/01/06 09:43:33;;;;;;;3.88;1.08;;;;;;;1.45;68.31;101337.38;5024502;28;20029;-68
2022/01/06 09:46:06;;;;;;;2.28;0.90;;;;;;;1.43;67.70;101335.88;5023646;28;20030;-67
2022/01/06 09:48:35;;;;;;;4.03;0.85;;;;;;;1.44;67.58;101338.38;5024886;28;20029;-68
2022/01/06 09:51:00;;;;;;;2.60;1.05;;;;;;;1.64;68.17;101343.22;5025001;28;20035;-68
2022/01/06 09:53:26;;;;;;;6.57;1.15;;;;;;;1.51;67.08;101344.59;5024467;28;20025;-67
2022/01/06 09:55:52;;;;;;;3.35;1.08;;;;;;;1.63;67.57;101349.50;5019817;28;20499;-67
2022/01/06 09:58:22;;;;;;;4.32;1.30;;;;;;;1.64;67.56;101346.69;5023705;28;20040;-68
2022/01/06 10:00:48;;;;;;;3.20;1.20;;;;;;;1.72;67.58;101351.91;5024853;28;20029;-67
2022/01/06 10:03:13;;;;;;;2.58;0.98;;;;;;;1.78;67.41;101348.53;5022023;28;20463;-68
2022/01/06 10:05:41;;;;;;;6.72;1.05;;;;;;;1.81;67.39;101353.50;5024340;28;20025;-67
2022/01/06 10:08:08;;;;;;;6.47;1.20;;;;;;;1.84;66.94;101354.16;5023962;28;20033;-67
2022/01/06 10:10:34;;;;;;;3.47;0.98;;;;;;;1.86;66.61;101358.25;5025004;28;20017;-68
2022/01/06 10:13:05;;;;;;;4.88;0.95;;;;;;;1.89;66.14;101365.00;5023909;28;20526;-68
2022/01/06 10:15:31;;;;;;;5.20;1.17;;;;;;;2.01;66.68;101364.44;5023602;28;20514;-68
2022/01/06 10:17:57;;;;;;;3.08;0.88;;;;;;;2.08;66.68;101360.06;5021433;28;20670;-68
2022/01/06 10:20:26;;;;;;;6.32;1.10;;;;;;;2.17;66.52;101367.94;5021601;28;20045;-68
2022/01/06 10:22:57;;;;;;;3.03;1.20;;;;;;;2.19;65.72;101373.88;5024531;28;20272;-67
2022/01/06 10:25:28;;;;;;;5.63;1.10;;;;;;;2.10;65.44;101373.91;5038362;28;20032;-68
2022/01/06 10:27:56;;;;;;;5.65;1.25;;;;;;;2.20;65.98;101381.63;5024011;28;20066;-67
2022/01/06 10:30:25;;;;;;;8.10;2.15;;;;;;;2.22;65.22;101384.09;5023529;28;20030;-67
2022/01/06 10:32:57;;;;;;;4.57;1.33;;;;;;;2.29;64.50;101396.41;5024214;28;20057;-67
2022/01/06 10:35:23;;;;;;;4.15;0.75;;;;;;;2.18;62.86;101398.66;5024050;28;20473;-68
2022/01/06 10:37:49;;;;;;;5.32;1.05;;;;;;;2.27;64.56;101403.69;5024970;28;20113;-67
2022/01/06 10:40:19;;;;;;;1.95;0.80;;;;;;;2.16;62.33;101408.59;5022262;28;20555;-67
2022/01/06 10:42:50;;;;;;;4.70;0.80;;;;;;;2.26;63.47;101412.63;5024572;28;20040;-67
2022/01/06 10:45:22;;;;;;;6.65;1.63;;;;;;;2.30;63.84;101416.56;5021331;28;20107;-68
2022/01/06 10:47:53;;;;;;;2.58;1.00;;;;;;;2.42;64.12;101430.19;5021574;28;20565;-67
2022/01/06 10:50:33;;;;;;;3.75;1.15;;;;;;;2.30;62.12;101428.97;5024217;28;20448;-67
2022/01/06 10:53:04;;;;;;;4.68;0.60;;;;;;;2.32;62.59;101437.53;5023441;28;20021;-67
2022/01/06 10:55:31;;;;;;;7.55;1.30;;;;;;;2.30;62.22;101444.81;5022310;28;20033;-67
2022/01/06 10:58:11;;;;;;;2.35;0.82;;;;;;;2.36;61.85;101449.44;5023223;28;20546;-67
2022/01/06 11:00:38;;;;;;;3.67;0.73;;;;;;;2.33;61.81;101450.56;5024985;28;20075;-67
2022/01/06 11:03:22;;;;;;;2.67;0.68;;;;;;;2.30;61.43;101460.69;5018898;28;20442;-67
2022/01/06 11:05:53;;;;;;;4.53;0.80;;;;;;;2.31;61.18;101465.81;5020492;28;20187;-67
2022/01/06 11:08:25;;;;;;;5.28;0.85;;;;;;;2.43;61.71;101471.50;5021987;28;20037;-66
2022/01/06 11:13:41;;;;;;;9.15;1.10;;;;;;;2.72;60.83;101482.19;5023886;28;20028;-67
2022/01/06 11:16:08;;;;;;;7.78;2.55;;;;;;;2.87;60.78;101478.75;5021950;28;20040;-67
2022/01/06 11:18:35;;;;;;;4.82;1.30;;;;;;;3.08;61.26;101481.53;5021519;28;20018;-67
2022/01/06 11:21:11;;;;;;;2.13;1.25;;;;;;;3.16;59.54;101485.91;5022216;28;20311;-67
2022/01/06 11:23:37;;;;;;;3.30;0.80;;;;;;;3.29;60.79;101486.94;5023228;28;20494;-67
2022/01/06 11:26:13;;;;;;;4.70;0.82;;;;;;;3.38;61.01;101497.44;5022582;28;20033;-67
2022/01/06 11:28:41;;;;;;;2.28;0.80;;;;;;;3.41;59.86;101497.06;5020400;28;20022;-67
2022/01/06 11:31:23;;;;;;;2.00;0.73;;;;;;;3.47;57.44;101506.94;5021364;28;20029;-67
2022/01/06 11:33:51;;;;;;;3.17;1.00;;;;;;;3.56;58.26;101517.25;5020708;28;20017;-67
2022/01/06 11:36:26;;;;;;;1.42;0.77;;;;;;;3.53;57.92;101522.09;5021647;28;20482;-68
2022/01/06 11:38:53;;;;;;;2.15;0.70;;;;;;;3.55;57.75;101530.69;5022728;28;20029;-67
2022/01/06 11:41:18;;;;;;;4.28;0.93;;;;;;;3.60;57.09;101533.63;5022010;28;20040;-67
2022/01/06 11:43:46;;;;;;;5.15;0.90;;;;;;;3.63;56.83;101525.31;5022584;28;20053;-68